aviador You're here:

YBBN Decoded Metar

BRISBANE in AUSTRALIA
Report Time2017-09-24 01:00:00
UTC Time2017-09-24 01:22:14
Flight Rules vfr VFR
Wind010° at 18 kt
W.Decomp.*RWY 01: 17.7 kt HW 3.4 kt LCW
RWY 32: 14.0 kt HW 11.3 kt RCW
W.Rank010° ranks 3
Current wind is above 010° avg. (10.5)
Visibility9999 m
Phenomena:N/A
Clouds:N/A
Expected CloudBase > 4,000 ft AGL from Temp-Dew spread
CeilingNone
Temp27°C (ISA +12)
Dew Point17°C (54% RH)
Heat Index27.7°C
AAT22.9°C
QNH1012 hPa
Density Alt1,696 ft
Elevation16 ft
Report Wrong Elevation
Raw Report
METAR YBBN 240100Z 01018KT CAVOK 27/17 Q1012
FM0300 01020G30KT CAVOK=

Extra information for YBBN:More info

Metar Taf Metar & Taf Last 4 Metars F.Rules Stats Wind Profile Meteogram Temp Stats Airport Information Weather charts Add Link Nearby VenuesMetar ALERT Operation Metar Decoded Social comments